Time;durP1;ratioP1;P1;durP2;ratioP2;P2;SDS_P1;SDS_P2;PMS_P1;PMS_P2;Temp;Humidity;BMP_temperature;BMP_pressure;BME280_temperature;BME280_humidity;BME280_pressure;Samples;Min_cycle;Max_cycle;Signal;HPM_P1;HPM_P2
2022/04/20 00:00:38;;;;;;;25.65;15.40;;;4.80;99.90;;;;;;4893078;29;20040;-85
2022/04/20 00:03:05;;;;;;;25.48;15.60;;;4.80;99.90;;;;;;4893747;29;20408;-85
2022/04/20 00:05:33;;;;;;;22.08;14.45;;;4.70;99.90;;;;;;4892988;29;20036;-85
2022/04/20 00:08:00;;;;;;;26.98;15.02;;;4.70;99.90;;;;;;4890033;29;20036;-85
2022/04/20 00:10:27;;;;;;;25.05;15.63;;;4.60;99.90;;;;;;4873925;29;20108;-86
2022/04/20 00:12:53;;;;;;;24.23;14.85;;;4.60;99.90;;;;;;4890700;29;20029;-86
2022/04/20 00:15:19;;;;;;;26.08;15.35;;;4.70;99.90;;;;;;4892069;29;20017;-86
2022/04/20 00:17:44;;;;;;;22.00;14.82;;;4.60;99.90;;;;;;4893255;29;20025;-85
2022/04/20 00:20:10;;;;;;;23.00;13.82;;;4.60;99.90;;;;;;4890653;29;20029;-86
2022/04/20 00:22:36;;;;;;;21.15;13.82;;;4.60;99.90;;;;;;4891640;29;20037;-84
2022/04/20 00:25:02;;;;;;;23.88;14.05;;;4.60;99.90;;;;;;4893955;29;20033;-82
2022/04/20 00:27:33;;;;;;;24.63;14.65;;;4.60;99.90;;;;;;4891286;29;20052;-85
2022/04/20 00:29:59;;;;;;;22.50;13.85;;;4.60;99.90;;;;;;4888126;29;20033;-84
2022/04/20 00:32:25;;;;;;;24.23;14.85;;;4.50;99.90;;;;;;4890013;29;20408;-84
2022/04/20 00:34:51;;;;;;;21.35;13.43;;;4.60;99.90;;;;;;4888681;29;20120;-86
2022/04/20 00:37:17;;;;;;;21.02;12.68;;;4.60;99.90;;;;;;4887166;29;20434;-86
2022/04/20 00:39:43;;;;;;;20.48;12.63;;;4.60;99.90;;;;;;4870706;29;20057;-85
2022/04/20 00:42:09;;;;;;;20.55;12.88;;;4.50;99.90;;;;;;4888435;29;20052;-85
2022/04/20 00:44:35;;;;;;;20.85;12.82;;;4.50;99.90;;;;;;4888036;29;20105;-85
2022/04/20 00:47:01;;;;;;;19.92;12.63;;;4.50;99.90;;;;;;4891562;29;20032;-84
2022/04/20 00:49:29;;;;;;;16.63;11.27;;;4.50;99.90;;;;;;4904734;29;20036;-85
2022/04/20 00:51:57;;;;;;;16.95;11.35;;;4.50;99.90;;;;;;4896119;29;20054;-84
2022/04/20 00:54:24;;;;;;;18.35;11.20;;;4.60;99.90;;;;;;4882844;29;20020;-83
2022/04/20 00:56:51;;;;;;;17.30;11.43;;;4.50;99.90;;;;;;4896821;29;20033;-86
2022/04/20 00:59:22;;;;;;;18.60;11.65;;;4.50;99.90;;;;;;4894481;29;20017;-85
2022/04/20 01:01:50;;;;;;;18.65;11.32;;;4.50;99.90;;;;;;4901565;29;20017;-83
2022/04/20 01:04:16;;;;;;;19.45;11.75;;;4.60;99.90;;;;;;4918231;29;20021;-84
2022/04/20 01:07:22;;;;;;;17.33;11.30;;;4.60;99.90;;;;;;4902766;29;20021;-83
2022/04/20 01:10:16;;;;;;;17.77;10.75;;;4.60;99.90;;;;;;4898177;29;20045;-82
2022/04/20 01:12:52;;;;;;;18.95;11.00;;;4.50;99.90;;;;;;4900399;29;20050;-85
2022/04/20 01:15:36;;;;;;;18.05;11.63;;;4.50;99.90;;;;;;4902877;29;20035;-84
2022/04/20 01:18:14;;;;;;;18.35;11.45;;;4.50;99.90;;;;;;4902427;29;20033;-84
2022/04/20 01:21:07;;;;;;;17.05;11.40;;;4.50;99.90;;;;;;4879847;29;20100;-86
2022/04/20 01:23:59;;;;;;;18.45;11.20;;;4.50;99.90;;;;;;4891599;29;20036;-84
2022/04/20 01:26:53;;;;;;;18.67;12.18;;;4.50;99.90;;;;;;4887637;29;20088;-83
2022/04/20 01:29:29;;;;;;;20.80;11.88;;;4.50;99.90;;;;;;4893774;29;20105;-85
2022/04/20 01:32:01;;;;;;;18.63;11.50;;;4.50;99.90;;;;;;4892871;29;20127;-84
2022/04/20 01:34:52;;;;;;;20.13;10.90;;;4.50;99.90;;;;;;4897792;29;20050;-84
2022/04/20 01:37:18;;;;;;;18.70;11.32;;;4.50;99.90;;;;;;4881505;29;20036;-84
2022/04/20 01:39:45;;;;;;;18.85;11.25;;;4.50;99.90;;;;;;4901130;29;20028;-86
2022/04/20 01:42:11;;;;;;;22.52;12.15;;;4.50;99.90;;;;;;4895617;29;20057;-84
2022/04/20 01:44:42;;;;;;;18.65;12.18;;;4.50;99.90;;;;;;4896805;29;20029;-83
2022/04/20 01:47:26;;;;;;;17.83;11.70;;;4.50;99.90;;;;;;4899290;29;20037;-84
2022/04/20 01:50:22;;;;;;;17.05;10.85;;;4.40;99.90;;;;;;4898377;29;20037;-84
2022/04/20 01:53:13;;;;;;;19.23;12.00;;;4.40;99.90;;;;;;4895855;29;20056;-84
2022/04/20 01:56:00;;;;;;;19.48;12.25;;;4.40;99.90;;;;;;4890836;29;20089;-84
2022/04/20 01:58:45;;;;;;;17.75;10.93;;;4.40;99.90;;;;;;4901877;29;20067;-84
2022/04/20 02:04:18;;;;;;;17.92;11.50;;;4.40;99.90;;;;;;4918303;29;20033;-84
2022/04/20 02:06:45;;;;;;;20.23;12.57;;;4.40;99.90;;;;;;4914808;29;20077;-84
2022/04/20 02:09:18;;;;;;;17.25;10.85;;;4.40;99.90;;;;;;4888836;29;20021;-83
2022/04/20 02:11:51;;;;;;;19.10;12.63;;;4.40;99.90;;;;;;4903612;29;20036;-82
2022/04/20 02:14:30;;;;;;;19.35;12.15;;;4.40;99.90;;;;;;4903318;29;20037;-84
2022/04/20 02:17:08;;;;;;;19.23;11.82;;;4.40;99.90;;;;;;4903356;29;20025;-84
2022/04/20 02:19:37;;;;;;;20.50;12.65;;;4.30;99.90;;;;;;4903227;29;20040;-84
2022/04/20 02:22:23;;;;;;;20.50;11.88;;;4.40;99.90;;;;;;4893900;29;20119;-85
2022/04/20 02:24:49;;;;;;;21.58;13.63;;;4.30;99.90;;;;;;4893861;29;20037;-84
2022/04/20 02:27:14;;;;;;;21.13;13.40;;;4.30;99.90;;;;;;4898899;29;20013;-84
2022/04/20 02:29:40;;;;;;;22.17;13.80;;;4.30;99.90;;;;;;4898221;29;20063;-84
2022/04/20 02:32:08;;;;;;;22.98;13.68;;;4.30;99.90;;;;;;4900494;29;20025;-84
2022/04/20 02:34:36;;;;;;;21.25;13.07;;;4.30;99.90;;;;;;4917720;29;20013;-84
2022/04/20 02:37:04;;;;;;;21.40;13.98;;;4.30;99.90;;;;;;4902752;29;20099;-82
2022/04/20 02:39:30;;;;;;;26.20;15.48;;;4.20;99.90;;;;;;4902956;29;20065;-84
2022/04/20 02:41:56;;;;;;;23.70;15.00;;;4.30;99.90;;;;;;4903214;29;20029;-85
2022/04/20 02:44:22;;;;;;;21.83;14.70;;;4.20;99.90;;;;;;4902289;29;20051;-84
2022/04/20 02:46:48;;;;;;;25.75;14.85;;;4.20;99.90;;;;;;4896795;29;20036;-84
2022/04/20 02:49:15;;;;;;;23.48;15.27;;;4.20;99.90;;;;;;4890931;29;20041;-85
2022/04/20 02:51:41;;;;;;;23.88;14.98;;;4.20;99.90;;;;;;4890627;29;20021;-83
2022/04/20 02:54:07;;;;;;;24.52;15.20;;;4.20;99.90;;;;;;4882073;29;20029;-84
2022/04/20 02:56:36;;;;;;;25.67;15.68;;;4.10;99.90;;;;;;4875535;29;20033;-85
2022/04/20 02:59:02;;;;;;;24.98;15.45;;;4.10;99.90;;;;;;4898922;29;20032;-82
2022/04/20 03:01:31;;;;;;;29.67;17.38;;;4.10;99.90;;;;;;4897221;29;20347;-85
2022/04/20 03:04:00;;;;;;;26.77;16.38;;;4.10;99.90;;;;;;4889858;29;20391;-85
2022/04/20 03:06:29;;;;;;;25.25;16.55;;;4.10;99.90;;;;;;4873702;29;20105;-84
2022/04/20 03:08:58;;;;;;;29.15;16.70;;;4.10;99.90;;;;;;4885589;29;20043;-85
2022/04/20 03:11:27;;;;;;;26.63;15.07;;;4.00;99.90;;;;;;4901706;29;20021;-84
2022/04/20 03:13:53;;;;;;;28.08;15.48;;;4.00;99.90;;;;;;4899737;29;20115;-85
2022/04/20 03:16:21;;;;;;;25.63;15.88;;;4.10;99.90;;;;;;4889683;29;20017;-82
2022/04/20 03:18:49;;;;;;;27.58;16.98;;;4.10;99.90;;;;;;4901937;29;20126;-83
2022/04/20 03:21:20;;;;;;;25.25;16.20;;;4.10;99.90;;;;;;4894927;29;20097;-85
2022/04/20 03:23:47;;;;;;;26.90;15.80;;;4.10;99.90;;;;;;4890787;29;20035;-84
2022/04/20 03:26:20;;;;;;;24.40;14.65;;;4.10;99.90;;;;;;4887279;29;20092;-85
2022/04/20 03:29:05;;;;;;;27.70;15.57;;;4.10;99.90;;;;;;4891729;29;20454;-86
2022/04/20 03:31:34;;;;;;;24.17;14.43;;;4.10;99.90;;;;;;4886443;29;20037;-84
2022/04/20 03:34:03;;;;;;;22.98;14.63;;;4.10;99.90;;;;;;4890652;29;20025;-84
2022/04/20 03:36:30;;;;;;;25.35;14.40;;;4.10;99.90;;;;;;4883785;29;20036;-82
2022/04/20 03:38:56;;;;;;;24.52;15.55;;;4.20;99.90;;;;;;4884863;29;20021;-84
2022/04/20 03:41:25;;;;;;;22.48;13.95;;;4.20;99.90;;;;;;4885003;29;20036;-83
2022/04/20 03:43:50;;;;;;;26.73;15.85;;;4.10;99.90;;;;;;4885044;29;20033;-82
2022/04/20 03:46:16;;;;;;;28.77;14.88;;;4.10;99.90;;;;;;4882440;29;20093;-85
2022/04/20 03:48:43;;;;;;;24.05;14.13;;;4.20;99.90;;;;;;4883468;29;20405;-83
2022/04/20 03:51:09;;;;;;;23.45;14.15;;;4.20;99.90;;;;;;4885833;29;20080;-85
2022/04/20 03:53:35;;;;;;;28.05;14.20;;;4.20;99.90;;;;;;4885052;29;20031;-82
2022/04/20 03:56:03;;;;;;;22.92;14.68;;;4.10;99.90;;;;;;4870527;29;20029;-82
2022/04/20 03:58:29;;;;;;;25.08;15.27;;;4.10;99.90;;;;;;4870700;29;20375;-84
2022/04/20 04:00:55;;;;;;;21.15;13.88;;;4.10;99.90;;;;;;4887907;29;20111;-83
2022/04/20 04:03:22;;;;;;;27.27;15.25;;;4.10;99.90;;;;;;4872069;29;20122;-83
2022/04/20 04:05:48;;;;;;;23.67;15.02;;;4.10;99.90;;;;;;4886863;29;20025;-85
2022/04/20 04:08:20;;;;;;;23.17;14.13;;;4.10;99.90;;;;;;4894318;29;20409;-84
2022/04/20 04:10:46;;;;;;;23.67;14.70;;;4.10;99.90;;;;;;4889724;29;20116;-84
2022/04/20 04:13:13;;;;;;;23.40;14.77;;;4.10;99.90;;;;;;4901196;29;20025;-83
2022/04/20 04:15:43;;;;;;;27.15;15.52;;;4.10;99.90;;;;;;4899572;29;20029;-82
2022/04/20 04:18:10;;;;;;;25.70;15.35;;;4.20;99.90;;;;;;4888882;29;20041;-83
2022/04/20 04:20:44;;;;;;;24.17;14.85;;;4.20;99.90;;;;;;4885402;29;20022;-81
2022/04/20 04:23:12;;;;;;;25.58;15.27;;;4.20;99.90;;;;;;4896399;29;20033;-83
2022/04/20 04:25:58;;;;;;;26.10;15.07;;;4.20;99.90;;;;;;4869410;29;20037;-83
2022/04/20 04:28:40;;;;;;;25.25;14.98;;;4.30;99.90;;;;;;4889647;29;20040;-84
2022/04/20 04:31:07;;;;;;;25.60;14.82;;;4.30;99.90;;;;;;4908419;29;20036;-83
2022/04/20 04:33:35;;;;;;;25.92;15.25;;;4.30;99.90;;;;;;4893112;29;20064;-82
2022/04/20 04:36:02;;;;;;;25.88;14.57;;;4.40;99.90;;;;;;4890380;29;20370;-85
2022/04/20 04:38:30;;;;;;;25.48;14.95;;;4.40;99.90;;;;;;4888656;29;20401;-84
2022/04/20 04:40:56;;;;;;;24.55;15.15;;;4.50;99.90;;;;;;4877443;29;20044;-83
2022/04/20 04:43:22;;;;;;;25.60;15.13;;;4.50;99.90;;;;;;4892483;29;20536;-82
2022/04/20 04:48:39;;;;;;;26.70;14.75;;;4.60;99.90;;;;;;4911997;29;20029;-81
2022/04/20 04:51:10;;;;;;;22.63;14.50;;;4.70;99.90;;;;;;4895330;29;20029;-85
2022/04/20 04:53:38;;;;;;;24.92;14.68;;;4.70;99.90;;;;;;4889278;29;20056;-83
2022/04/20 04:56:05;;;;;;;20.80;13.80;;;4.80;99.90;;;;;;4889804;29;20029;-84
2022/04/20 04:58:38;;;;;;;22.58;13.93;;;4.90;99.90;;;;;;4892135;29;20060;-86
2022/04/20 05:01:04;;;;;;;28.08;15.40;;;4.90;99.90;;;;;;4905534;29;20025;-85
2022/04/20 05:03:30;;;;;;;23.98;14.30;;;4.90;99.90;;;;;;4886803;29;20057;-86
2022/04/20 05:05:57;;;;;;;25.10;14.85;;;5.00;99.90;;;;;;4893290;29;20028;-84
2022/04/20 05:08:41;;;;;;;25.95;15.13;;;5.00;99.90;;;;;;4893898;29;20098;-85
2022/04/20 05:11:07;;;;;;;23.42;14.13;;;5.00;99.90;;;;;;4893121;29;20037;-83
2022/04/20 05:13:33;;;;;;;24.77;14.88;;;5.10;99.90;;;;;;4893621;29;20104;-82
2022/04/20 05:15:59;;;;;;;25.13;15.07;;;5.10;99.90;;;;;;4892390;29;20058;-82
2022/04/20 05:18:25;;;;;;;23.38;14.65;;;5.20;99.90;;;;;;4897061;29;20032;-84
2022/04/20 05:20:52;;;;;;;25.52;16.15;;;5.20;99.90;;;;;;4899225;29;20083;-84
2022/04/20 05:23:19;;;;;;;26.25;15.65;;;5.40;99.90;;;;;;4897683;29;20020;-82
2022/04/20 05:25:45;;;;;;;27.88;15.73;;;5.50;99.90;;;;;;4883533;29;20033;-84
2022/04/20 05:28:13;;;;;;;26.08;15.70;;;5.60;99.90;;;;;;4893720;29;20021;-81
2022/04/20 05:30:38;;;;;;;29.27;16.02;;;5.70;99.90;;;;;;4901761;29;20048;-81
2022/04/20 05:33:04;;;;;;;28.40;17.60;;;5.80;99.90;;;;;;4901543;29;20041;-82
2022/04/20 05:35:32;;;;;;;28.17;16.70;;;5.80;99.90;;;;;;4901494;29;20093;-82
2022/04/20 05:43:35;;;;;;;24.75;14.95;;;5.90;99.90;;;;;;4898732;29;20029;-86
2022/04/20 05:46:01;;;;;;;28.65;15.85;;;6.00;99.90;;;;;;4889497;29;20057;-85
2022/04/20 05:48:40;;;;;;;25.25;14.65;;;6.00;99.90;;;;;;4892677;29;20125;-85
2022/04/20 05:51:11;;;;;;;25.75;14.82;;;6.00;99.90;;;;;;4888516;29;20048;-86
2022/04/20 05:53:37;;;;;;;25.52;15.60;;;6.20;99.90;;;;;;4885975;29;20097;-86
2022/04/20 05:56:04;;;;;;;26.55;15.07;;;6.30;99.90;;;;;;4917779;23;117197;-80
2022/04/20 05:58:31;;;;;;;27.27;15.50;;;6.40;99.90;;;;;;4881197;29;20039;-79
2022/04/20 06:00:57;;;;;;;25.50;14.50;;;6.60;99.90;;;;;;4911396;29;20036;-81
2022/04/20 06:03:42;;;;;;;23.20;14.20;;;6.70;99.90;;;;;;4894068;29;20052;-81
2022/04/20 06:06:31;;;;;;;24.25;14.35;;;6.80;99.90;;;;;;4872747;29;20040;-80
2022/04/20 06:08:59;;;;;;;21.55;13.27;;;7.00;99.90;;;;;;4887132;29;20777;-80
2022/04/20 06:11:45;;;;;;;21.15;13.88;;;7.00;99.90;;;;;;4889862;29;20072;-80
2022/04/20 06:14:15;;;;;;;24.70;15.20;;;7.10;99.90;;;;;;4890711;29;20025;-78
2022/04/20 06:16:50;;;;;;;25.98;13.75;;;7.10;99.90;;;;;;4892018;29;20044;-80
2022/04/20 06:19:36;;;;;;;21.65;14.10;;;7.20;99.90;;;;;;4883043;29;20132;-80
2022/04/20 06:22:14;;;;;;;25.02;13.63;;;7.30;99.90;;;;;;4875142;29;20029;-81
2022/04/20 06:25:00;;;;;;;19.05;12.80;;;7.50;99.90;;;;;;4892016;29;20097;-80
2022/04/20 06:27:49;;;;;;;21.80;13.27;;;7.50;99.90;;;;;;4888508;29;20093;-79
2022/04/20 06:30:34;;;;;;;19.23;12.52;;;7.70;99.90;;;;;;4898237;29;20037;-80
2022/04/20 06:33:14;;;;;;;21.60;13.65;;;7.70;99.90;;;;;;4903717;29;20052;-77
2022/04/20 06:35:43;;;;;;;20.85;12.82;;;7.80;99.90;;;;;;4903929;29;20118;-77
2022/04/20 06:38:28;;;;;;;23.30;13.10;;;7.90;99.90;;;;;;4891288;29;20033;-78
2022/04/20 06:41:14;;;;;;;21.48;13.35;;;8.00;99.90;;;;;;4894787;29;20021;-78
2022/04/20 06:43:58;;;;;;;20.90;13.65;;;8.20;99.90;;;;;;4895209;29;20044;-78
2022/04/20 06:46:54;;;;;;;19.73;12.85;;;8.40;99.90;;;;;;4845943;29;20061;-79
2022/04/20 06:49:39;;;;;;;18.52;12.50;;;8.50;99.90;;;;;;4894397;29;20034;-80
2022/04/20 07:00:53;;;;;;;22.17;14.35;;;9.10;99.90;;;;;;4905070;29;20045;-78
2022/04/20 07:03:38;;;;;;;21.08;13.20;;;9.10;99.90;;;;;;4888187;29;20070;-79
2022/04/20 07:06:16;;;;;;;20.33;13.00;;;9.20;99.90;;;;;;4877378;29;20064;-79
2022/04/20 07:09:05;;;;;;;18.95;12.88;;;9.30;99.90;;;;;;4864629;29;20050;-79
2022/04/20 07:11:38;;;;;;;20.05;13.32;;;9.50;99.90;;;;;;4874577;29;20025;-79
2022/04/20 07:14:05;;;;;;;24.17;12.95;;;9.70;99.90;;;;;;4874525;29;20034;-80
2022/04/20 07:16:31;;;;;;;23.85;14.73;;;9.50;99.90;;;;;;4866970;29;20089;-79
2022/04/20 07:19:17;;;;;;;21.50;13.27;;;9.20;99.90;;;;;;4879445;29;20129;-80
2022/04/20 07:22:04;;;;;;;20.48;14.10;;;9.50;99.90;;;;;;4876512;29;20041;-80
2022/04/20 07:24:40;;;;;;;21.75;13.52;;;9.60;99.90;;;;;;4881826;29;20040;-79
2022/04/20 07:27:33;;;;;;;34.00;14.48;;;9.80;99.90;;;;;;4885242;29;20050;-80
2022/04/20 07:30:13;;;;;;;22.45;13.57;;;10.00;99.90;;;;;;4885144;29;20049;-79
2022/04/20 07:32:59;;;;;;;20.10;13.40;;;10.10;99.90;;;;;;4875213;29;20025;-78
2022/04/20 07:35:35;;;;;;;21.83;13.93;;;10.20;99.90;;;;;;4884871;29;20029;-79
2022/04/20 07:38:24;;;;;;;19.33;13.18;;;10.30;99.90;;;;;;4885351;29;20034;-80
2022/04/20 07:41:08;;;;;;;18.42;13.00;;;10.50;99.90;;;;;;4884545;29;20056;-80
2022/04/20 07:43:57;;;;;;;18.50;12.82;;;10.60;99.90;;;;;;4877374;29;20050;-81
2022/04/20 07:46:46;;;;;;;21.90;13.35;;;10.70;99.90;;;;;;4854422;29;20049;-82
2022/04/20 07:52:25;;;;;;;20.92;13.70;;;10.80;99.90;;;;;;4876649;29;20021;-81
2022/04/20 07:55:10;;;;;;;21.13;14.05;;;10.80;99.90;;;;;;4874999;29;20100;-82
2022/04/20 07:57:51;;;;;;;18.23;12.43;;;10.90;99.90;;;;;;4872213;29;20033;-80
2022/04/20 08:00:35;;;;;;;19.50;13.25;;;11.10;99.90;;;;;;4871337;29;20041;-82
2022/04/20 08:03:20;;;;;;;20.88;13.98;;;11.10;99.90;;;;;;4875856;29;20497;-82
2022/04/20 08:05:51;;;;;;;22.25;14.13;;;11.00;99.90;;;;;;4874883;29;20033;-80
2022/04/20 08:08:19;;;;;;;25.35;14.10;;;11.10;99.90;;;;;;4870829;29;20034;-82
2022/04/20 08:10:45;;;;;;;22.83;15.05;;;11.30;99.90;;;;;;4871374;29;20022;-81
2022/04/20 08:15:55;;;;;;;20.97;13.80;;;11.40;99.90;;;;;;4878899;29;20073;-84
2022/04/20 08:18:23;;;;;;;19.52;12.93;;;11.40;99.90;;;;;;4881021;29;20025;-83
2022/04/20 08:20:55;;;;;;;21.35;13.98;;;11.50;99.90;;;;;;4885571;29;20043;-82
2022/04/20 08:23:21;;;;;;;20.83;13.15;;;11.60;99.90;;;;;;4896555;29;20052;-81
2022/04/20 08:25:46;;;;;;;19.75;13.60;;;11.70;99.90;;;;;;4882548;29;20028;-83
2022/04/20 08:28:13;;;;;;;19.35;13.55;;;11.80;99.90;;;;;;4880388;29;20049;-82
2022/04/20 08:30:40;;;;;;;21.67;12.55;;;12.00;99.90;;;;;;4873916;29;20036;-80
2022/04/20 08:33:08;;;;;;;23.25;12.55;;;12.30;99.90;;;;;;4872499;29;20053;-82
2022/04/20 08:35:37;;;;;;;20.92;12.55;;;12.20;99.90;;;;;;4873131;29;20077;-82
2022/04/20 08:38:04;;;;;;;18.23;12.60;;;12.40;99.90;;;;;;4869663;29;20081;-82
2022/04/20 08:40:32;;;;;;;18.67;12.52;;;12.50;99.90;;;;;;4873164;29;20037;-80
2022/04/20 08:43:03;;;;;;;18.10;12.98;;;12.60;99.90;;;;;;4872572;29;20041;-83
2022/04/20 08:45:30;;;;;;;17.20;12.63;;;12.70;99.90;;;;;;4872804;29;20539;-82
2022/04/20 08:47:57;;;;;;;22.40;13.10;;;12.60;99.90;;;;;;4875224;29;20513;-84
2022/04/20 08:50:24;;;;;;;18.20;13.13;;;12.70;99.90;;;;;;4876232;29;20120;-81
2022/04/20 08:52:51;;;;;;;20.95;13.45;;;12.80;99.90;;;;;;4880579;29;20580;-80
2022/04/20 08:55:18;;;;;;;19.38;12.80;;;12.80;99.90;;;;;;4877315;29;20049;-84
2022/04/20 08:57:49;;;;;;;19.67;12.70;;;12.90;99.50;;;;;;4878727;29;20050;-83
2022/04/20 09:00:21;;;;;;;19.02;12.77;;;13.10;99.10;;;;;;4889339;29;20028;-83
2022/04/20 09:02:58;;;;;;;19.58;12.93;;;13.30;98.70;;;;;;4897739;29;20059;-84
2022/04/20 09:05:34;;;;;;;19.08;12.43;;;13.40;98.30;;;;;;4895261;29;20040;-82
2022/04/20 09:08:11;;;;;;;20.15;12.43;;;13.30;98.10;;;;;;4898200;29;20041;-83
2022/04/20 09:10:38;;;;;;;16.88;11.88;;;13.20;97.50;;;;;;4901478;29;20069;-82
2022/04/20 09:13:07;;;;;;;18.88;12.60;;;13.30;97.20;;;;;;4900558;29;20040;-82
2022/04/20 09:15:35;;;;;;;17.60;11.98;;;13.30;97.90;;;;;;4899459;29;20057;-84
2022/04/20 09:18:08;;;;;;;18.33;11.95;;;13.40;97.80;;;;;;4899096;29;20049;-82
2022/04/20 09:20:35;;;;;;;19.58;12.07;;;13.50;97.00;;;;;;4899647;29;20033;-81
2022/04/20 09:23:03;;;;;;;18.73;12.00;;;13.80;97.10;;;;;;4912929;29;20017;-82
2022/04/20 09:25:40;;;;;;;16.60;12.45;;;14.30;96.50;;;;;;4896729;29;20048;-82
2022/04/20 09:28:07;;;;;;;18.08;12.02;;;15.00;94.60;;;;;;4892432;29;20033;-81
2022/04/20 09:30:42;;;;;;;17.42;10.98;;;15.60;94.20;;;;;;4889720;29;20082;-81
2022/04/20 09:33:10;;;;;;;16.33;11.70;;;16.20;92.70;;;;;;4892158;29;20047;-82
2022/04/20 09:35:50;;;;;;;15.35;10.95;;;16.60;91.90;;;;;;4888533;29;20010;-83
2022/04/20 09:38:21;;;;;;;19.25;11.35;;;17.30;90.20;;;;;;4892639;29;20040;-84
2022/04/20 09:41:09;;;;;;;14.23;10.10;;;17.50;86.80;;;;;;4891065;29;20057;-82
2022/04/20 09:43:35;;;;;;;13.18;10.07;;;19.30;84.70;;;;;;4886349;29;20039;-84
2022/04/20 09:48:50;;;;;;;14.68;9.80;;;20.60;79.20;;;;;;4871968;29;20025;-83
2022/04/20 09:49:13;;;;;;;12.65;9.18;;;21.10;75.50;;;;;;4874238;29;20038;-81
2022/04/20 09:51:41;;;;;;;12.20;9.80;;;22.00;72.90;;;;;;4864514;29;20030;-82
2022/04/20 09:54:27;;;;;;;13.70;9.82;;;22.40;68.90;;;;;;4881561;29;20482;-81
2022/04/20 09:57:13;;;;;;;12.90;9.73;;;22.40;68.00;;;;;;4882356;29;20025;-82
2022/04/20 09:59:59;;;;;;;13.07;9.43;;;23.70;65.30;;;;;;4881072;29;20136;-81
2022/04/20 10:02:25;;;;;;;10.85;8.57;;;24.80;62.00;;;;;;4864302;29;20038;-82
2022/04/20 10:04:52;;;;;;;11.75;8.45;;;25.40;58.40;;;;;;4856543;29;20037;-84
2022/04/20 10:07:18;;;;;;;11.75;9.10;;;25.40;57.20;;;;;;4855893;29;20402;-82
2022/04/20 10:09:45;;;;;;;10.45;8.90;;;26.20;56.30;;;;;;4856552;29;20054;-82
2022/04/20 10:12:18;;;;;;;12.80;8.88;;;26.20;55.70;;;;;;4857527;29;20554;-82
2022/04/20 10:17:43;;;;;;;11.02;8.07;;;27.20;53.00;;;;;;4858168;29;20036;-82
2022/04/20 10:20:11;;;;;;;11.35;8.48;;;28.10;50.90;;;;;;4872377;29;20439;-83
2022/04/20 10:22:39;;;;;;;11.40;8.30;;;28.50;50.20;;;;;;4870556;29;20056;-83
2022/04/20 10:25:06;;;;;;;12.82;8.80;;;28.70;49.50;;;;;;4871463;29;20046;-82
2022/04/20 10:27:43;;;;;;;10.35;7.95;;;29.00;47.80;;;;;;4871203;29;20029;-85
2022/04/20 10:30:36;;;;;;;11.05;7.57;;;28.90;47.60;;;;;;4873721;29;20037;-83
2022/04/20 10:33:16;;;;;;;11.18;8.48;;;28.10;47.80;;;;;;4878523;29;20037;-83
2022/04/20 10:35:58;;;;;;;10.70;8.55;;;29.10;48.00;;;;;;4871793;29;20033;-84
2022/04/20 10:38:30;;;;;;;12.05;8.48;;;29.10;47.90;;;;;;4880454;29;20037;-84
2022/04/20 10:41:18;;;;;;;10.23;8.82;;;29.00;47.40;;;;;;4853453;29;20033;-83
2022/04/20 10:43:45;;;;;;;11.10;9.20;;;28.90;47.10;;;;;;4868686;29;20074;-85
2022/04/20 10:46:17;;;;;;;10.75;9.07;;;28.60;47.80;;;;;;4857096;29;20026;-85
2022/04/20 10:48:52;;;;;;;10.68;8.63;;;28.40;47.20;;;;;;4872112;29;20058;-84
2022/04/20 10:51:22;;;;;;;10.70;8.32;;;29.20;47.00;;;;;;4858278;29;20034;-81
2022/04/20 10:53:49;;;;;;;11.55;9.23;;;29.80;46.20;;;;;;4857480;29;20085;-81
2022/04/20 10:56:19;;;;;;;12.75;9.27;;;29.40;46.10;;;;;;4880483;29;20053;-84
2022/04/20 10:59:06;;;;;;;9.43;8.38;;;28.80;46.50;;;;;;4892364;29;20109;-84
2022/04/20 11:01:52;;;;;;;9.32;7.45;;;28.10;46.40;;;;;;4891191;29;20493;-83
2022/04/20 11:04:37;;;;;;;10.65;7.55;;;29.30;45.50;;;;;;4871230;29;20038;-84
2022/04/20 11:07:04;;;;;;;9.60;8.10;;;30.50;44.40;;;;;;4869590;29;20092;-84
2022/04/20 11:09:43;;;;;;;10.85;7.90;;;29.80;44.10;;;;;;4853474;29;20121;-83
2022/04/20 11:21:03;;;;;;;9.07;7.65;;;27.60;45.80;;;;;;4868024;29;20062;-83
2022/04/20 11:23:57;;;;;;;13.35;8.40;;;26.80;45.80;;;;;;4861902;29;20033;-83
2022/04/20 11:26:30;;;;;;;10.88;8.45;;;25.00;46.90;;;;;;4858436;29;20038;-83
2022/04/20 11:28:59;;;;;;;17.17;10.00;;;23.70;48.80;;;;;;4859613;29;20102;-83
2022/04/20 11:31:25;;;;;;;13.55;8.93;;;22.70;50.70;;;;;;4861177;29;20038;-83
2022/04/20 11:33:53;;;;;;;10.73;8.60;;;22.40;51.40;;;;;;4864749;29;20041;-83
2022/04/20 11:36:20;;;;;;;12.32;8.88;;;22.10;49.80;;;;;;4876754;29;20026;-83
2022/04/20 11:38:48;;;;;;;12.05;9.55;;;21.20;51.80;;;;;;4872557;29;20030;-83
2022/04/20 11:41:16;;;;;;;12.15;9.13;;;20.60;53.50;;;;;;4877485;29;20026;-82
2022/04/20 11:43:42;;;;;;;12.35;10.00;;;20.10;54.30;;;;;;4878387;29;20034;-84
2022/04/20 11:46:14;;;;;;;13.68;10.23;;;19.70;54.20;;;;;;4873982;29;20026;-86
2022/04/20 11:48:50;;;;;;;12.45;9.90;;;19.50;54.10;;;;;;4885841;29;20044;-82
2022/04/20 11:51:29;;;;;;;16.98;10.30;;;19.20;54.50;;;;;;4892642;29;20057;-82
2022/04/20 11:53:55;;;;;;;12.63;9.40;;;18.90;55.40;;;;;;4893243;29;20500;-81
2022/04/20 11:56:41;;;;;;;11.88;9.18;;;19.40;55.50;;;;;;4935497;23;20041;-88
2022/04/20 11:59:09;;;;;;;12.00;8.60;;;19.70;54.50;;;;;;4903324;29;20452;-87
2022/04/20 12:01:39;;;;;;;12.50;8.85;;;19.50;54.00;;;;;;4914102;29;20036;-88
2022/04/20 12:04:19;;;;;;;12.23;8.65;;;18.90;54.70;;;;;;4909207;29;20036;-87
2022/04/20 12:06:46;;;;;;;12.98;10.18;;;18.50;55.10;;;;;;4898808;29;20033;-87
2022/04/20 12:09:13;;;;;;;12.07;9.57;;;18.00;56.40;;;;;;4900723;29;20073;-86
2022/04/20 12:11:41;;;;;;;11.57;9.45;;;18.10;57.40;;;;;;4900288;29;20028;-86
2022/04/20 12:14:06;;;;;;;11.50;8.57;;;19.60;55.30;;;;;;4884474;29;20092;-86
2022/04/20 12:16:36;;;;;;;10.80;8.88;;;21.20;53.20;;;;;;4904372;29;20029;-87
2022/04/20 12:19:02;;;;;;;9.85;8.43;;;23.00;50.70;;;;;;4900965;29;20037;-87
2022/04/20 12:21:45;;;;;;;10.18;7.93;;;23.80;49.60;;;;;;4906637;29;20036;-87
2022/04/20 12:24:27;;;;;;;10.52;7.82;;;24.20;49.00;;;;;;4927949;29;20028;-88
2022/04/20 12:26:55;;;;;;;8.60;7.40;;;24.10;47.70;;;;;;4895166;29;20040;-87
2022/04/20 12:29:22;;;;;;;10.85;8.77;;;22.60;48.90;;;;;;4905793;29;20034;-88
2022/04/20 12:31:50;;;;;;;11.98;9.15;;;21.40;50.80;;;;;;4903903;29;20032;-87
2022/04/20 12:34:17;;;;;;;12.45;9.32;;;20.60;52.50;;;;;;4899005;29;20017;-86
2022/04/20 12:36:58;;;;;;;11.35;9.02;;;20.30;52.80;;;;;;4899609;29;20031;-88
2022/04/20 12:39:35;;;;;;;11.70;8.95;;;21.20;52.30;;;;;;4896453;29;20044;-87
2022/04/20 12:42:06;;;;;;;10.68;8.50;;;22.20;50.40;;;;;;4882409;29;20109;-87
2022/04/20 12:44:42;;;;;;;10.73;8.13;;;22.90;49.20;;;;;;4898043;29;20032;-87
2022/04/20 12:47:10;;;;;;;11.88;8.00;;;22.90;49.00;;;;;;4885758;29;20037;-87
2022/04/20 12:49:36;;;;;;;10.18;7.60;;;22.10;49.40;;;;;;4901658;29;20029;-88
2022/04/20 12:52:10;;;;;;;8.95;7.72;;;21.60;50.20;;;;;;4895545;29;20044;-87
2022/04/20 12:54:36;;;;;;;7.20;5.95;;;21.60;48.90;;;;;;4910040;29;20028;-87
2022/04/20 13:03:00;;;;;;;12.00;7.40;;;25.60;45.80;;;;;;4889625;29;19912;-86
2022/04/20 13:05:26;;;;;;;10.05;7.50;;;25.70;45.60;;;;;;4894415;29;20033;-89
2022/04/20 13:07:52;;;;;;;9.25;7.18;;;24.40;46.00;;;;;;4892568;29;20040;-88
2022/04/20 13:10:18;;;;;;;9.60;6.90;;;24.10;46.90;;;;;;4890709;29;20059;-88
2022/04/20 13:12:53;;;;;;;9.30;7.40;;;25.20;45.90;;;;;;4889419;29;20040;-88
2022/04/20 13:15:24;;;;;;;9.10;7.57;;;26.90;45.20;;;;;;4888965;29;20044;-88
2022/04/20 13:17:51;;;;;;;10.73;7.05;;;27.90;45.00;;;;;;4898718;29;20036;-88
2022/04/20 13:20:18;;;;;;;7.88;7.00;;;28.80;44.30;;;;;;4901017;29;20048;-87
2022/04/20 13:22:45;;;;;;;9.65;7.70;;;29.70;43.10;;;;;;4894187;29;20039;-88
2022/04/20 13:27:55;;;;;;;8.90;7.50;;;29.20;42.70;;;;;;4902481;29;20123;-87
2022/04/20 13:30:21;;;;;;;11.98;7.22;;;29.00;42.80;;;;;;4897369;29;20058;-88
2022/04/20 13:32:48;;;;;;;7.80;6.70;;;29.20;43.00;;;;;;4899339;29;20025;-86
2022/04/20 13:35:13;;;;;;;9.85;6.85;;;29.30;42.80;;;;;;4899857;29;20096;-85
2022/04/20 13:37:39;;;;;;;7.03;6.32;;;29.50;42.30;;;;;;4895721;29;20029;-85
2022/04/20 13:40:06;;;;;;;8.82;6.60;;;28.90;42.10;;;;;;4897805;29;20035;-87
2022/04/20 13:42:32;;;;;;;7.70;6.32;;;29.60;42.00;;;;;;4896352;29;20097;-86
2022/04/20 13:44:58;;;;;;;7.43;5.95;;;29.00;41.90;;;;;;4896740;29;20029;-86
2022/04/20 13:47:24;;;;;;;6.85;5.85;;;28.90;42.10;;;;;;4893454;29;20056;-89